CheckWX is a tool to help pilots better visualize weather data.  It is not intended as a substitute for an official pre-flight weather briefing.

09:49:20 UTC

KPRS METAR
Presidio Lely International Airport
Presidio, Texas, USA
Current

34 mins ago

KPRS 180915Z AUTO 35009KT 10SM CLR 19/10 A2988 RMK AO2 T01860097
Observed
Oct-18 @ 09:15 UTC
Wind
  • 350° at 9 KTS
Visibility
10 SM
Flight Rules
VFR
Cloud Levels
  • Clear skies
Temperature
19°C / 66°F
Dewpoint
10°C / 50°F
Humidity
56%
Altimeter
29.88" Hg
Pressure
1011.82 hPa
Previous

54 mins ago

KPRS 180855Z AUTO 35008KT 10SM CLR 19/10 A2987 RMK AO2 T01850097
Observed
Oct-18 @ 08:55 UTC
Wind
  • 350° at 8 KTS
Visibility
10 SM
Flight Rules
VFR
Cloud Levels
  • Clear skies
Temperature
19°C / 66°F
Dewpoint
10°C / 50°F
Humidity
56%
Altimeter
29.87" Hg
Pressure
1011.52 hPa
Previous

1 hour ago

KPRS 180835Z AUTO 35007KT 10SM CLR 19/10 A2988 RMK AO2 T01850097
Observed
Oct-18 @ 08:35 UTC
Wind
  • 350° at 7 KTS
Visibility
10 SM
Flight Rules
VFR
Cloud Levels
  • Clear skies
Temperature
19°C / 66°F
Dewpoint
10°C / 50°F
Humidity
56%
Altimeter
29.88" Hg
Pressure
1011.82 hPa